createdAt,value
2023-04-13T01:25:51.282Z,8.74
2023-04-13T01:29:33.978Z,8.72
2023-04-13T02:49:09.598Z,8.91
2023-04-13T02:52:06.464Z,8.93
2023-04-13T04:47:58.800Z,8.76
2023-04-13T04:51:42.887Z,8.75
2023-04-13T05:02:25.315Z,8.85
2023-04-13T05:04:56.278Z,8.86
2023-04-13T05:07:26.156Z,8.87
2023-04-13T05:09:54.801Z,8.88
2023-04-13T05:12:23.538Z,8.87
2023-04-13T05:14:51.936Z,8.85
2023-04-13T05:17:21.480Z,8.85
2023-04-13T05:19:55.837Z,8.84
2023-04-13T05:22:33.695Z,8.85
2023-04-13T05:25:09.625Z,8.84
2023-04-13T05:27:38.636Z,8.86
2023-04-13T05:30:12.143Z,8.87
2023-04-13T05:32:43.829Z,8.88
2023-04-13T05:35:15.533Z,8.92
2023-04-13T06:09:01.745Z,9.28
2023-04-13T06:11:31.656Z,9.43
2023-04-13T06:14:03.982Z,9.50
2023-04-13T06:16:34.131Z,9.56
2023-04-13T06:19:02.981Z,9.60
2023-04-13T06:21:37.319Z,9.61
2023-04-13T06:24:08.063Z,9.62
2023-04-13T06:26:40.477Z,9.62
2023-04-13T06:29:10.190Z,9.60
2023-04-13T06:31:50.411Z,9.60
2023-04-13T06:34:20.366Z,9.60
2023-04-13T06:36:49.248Z,9.60
2023-04-13T06:39:18.527Z,9.61
2023-04-13T06:41:54.404Z,9.63
2023-04-13T06:44:43.078Z,9.64
2023-04-13T06:47:16.782Z,9.64
2023-04-13T06:49:52.233Z,9.64
2023-04-13T06:52:21.349Z,9.65
2023-04-13T06:54:50.294Z,9.66
2023-04-13T06:57:33.323Z,9.68
2023-04-13T07:00:01.903Z,9.71
2023-04-13T07:02:34.618Z,9.74
2023-04-13T07:05:25.794Z,9.70
2023-04-13T07:07:56.187Z,9.67
2023-04-13T07:10:25.019Z,9.65
2023-04-13T07:12:56.213Z,9.65
2023-04-13T07:15:27.702Z,9.67
2023-04-13T07:17:56.396Z,9.70
2023-04-13T07:20:25.434Z,9.72
2023-04-13T07:22:54.783Z,9.72
2023-04-13T07:25:23.447Z,9.72
2023-04-13T07:28:12.559Z,9.73
2023-04-13T07:30:45.306Z,9.76
2023-04-13T07:33:14.559Z,9.81
2023-04-13T07:36:06.365Z,9.89
2023-04-13T07:38:36.044Z,9.98
2023-04-13T07:41:05.721Z,10.07
2023-04-13T07:43:39.080Z,10.14
2023-04-13T07:46:12.032Z,10.19
2023-04-13T07:48:43.902Z,10.22
2023-04-13T07:51:23.235Z,10.24
2023-04-13T07:53:55.519Z,10.25
2023-04-13T07:56:27.536Z,10.30
2023-04-13T07:58:57.482Z,10.36
2023-04-13T08:01:26.961Z,10.39
2023-04-13T08:03:56.372Z,10.39
2023-04-13T08:06:33.019Z,10.39
2023-04-13T08:09:03.856Z,10.39
2023-04-13T08:11:33.176Z,10.38
2023-04-13T08:14:12.062Z,10.39
2023-04-13T08:16:43.411Z,10.44
2023-04-13T08:19:13.422Z,10.52
2023-04-13T08:21:46.826Z,10.65
2023-04-13T08:24:15.456Z,10.85
2023-04-13T08:26:45.966Z,11.08
2023-04-13T08:29:15.611Z,11.32
2023-04-13T08:31:59.528Z,11.54
2023-04-13T08:34:33.768Z,11.70
2023-04-13T08:37:02.265Z,11.78
2023-04-13T08:39:44.076Z,11.79
2023-04-13T08:42:13.563Z,11.75
2023-04-13T08:44:43.289Z,11.68
2023-04-13T08:47:15.242Z,11.63
2023-04-13T08:49:44.896Z,11.60
2023-04-13T08:52:17.131Z,11.60
2023-04-13T08:54:49.469Z,11.66
2023-04-13T08:57:24.409Z,11.75
2023-04-13T08:59:53.920Z,11.84
2023-04-13T09:02:24.691Z,11.98
2023-04-13T09:05:09.191Z,12.20
2023-04-13T09:07:38.922Z,12.42
2023-04-13T09:10:16.987Z,12.58
2023-04-13T09:12:50.985Z,12.64
2023-04-13T09:15:19.611Z,12.59
2023-04-13T09:18:11.531Z,12.56
2023-04-13T09:20:43.603Z,12.57
2023-04-13T09:23:16.372Z,12.61
2023-04-13T09:25:47.010Z,12.60
2023-04-13T09:28:19.631Z,12.64
2023-04-13T09:30:48.269Z,12.73
2023-04-13T09:33:17.342Z,12.75
2023-04-13T09:35:48.899Z,12.77
2023-04-13T09:38:21.065Z,12.75
2023-04-13T09:40:50.269Z,12.68
2023-04-13T09:43:19.833Z,12.60
2023-04-13T09:45:48.658Z,12.51
2023-04-13T09:48:21.454Z,12.49
2023-04-13T09:51:04.507Z,12.51
2023-04-13T09:53:45.951Z,12.60
2023-04-13T09:56:15.094Z,12.69
2023-04-13T09:58:46.697Z,12.78
2023-04-13T10:01:18.196Z,12.87
2023-04-13T10:03:47.136Z,12.95
2023-04-13T10:06:15.830Z,12.96
2023-04-13T10:08:46.660Z,12.92
2023-04-13T10:11:16.169Z,12.86
2023-04-13T10:14:12.775Z,12.82
2023-04-13T10:16:45.851Z,12.81
2023-04-13T10:19:16.368Z,12.82
2023-04-13T10:21:45.882Z,12.77
2023-04-13T10:24:18.657Z,12.76
2023-04-13T10:26:54.822Z,12.80
2023-04-13T10:29:32.452Z,12.88
2023-04-13T10:32:05.431Z,13.00
2023-04-13T10:34:40.635Z,13.10
2023-04-13T10:37:21.183Z,13.23
2023-04-13T10:40:13.619Z,13.39
2023-04-13T10:42:53.128Z,13.55
2023-04-13T10:45:27.883Z,13.70
2023-04-13T10:48:01.606Z,13.82
2023-04-13T10:50:33.530Z,13.92
2023-04-13T10:53:04.302Z,13.98
2023-04-13T10:55:36.227Z,14.02
2023-04-13T10:58:14.459Z,14.00
2023-04-13T11:00:46.409Z,13.94
2023-04-13T11:03:16.941Z,13.93
2023-04-13T11:05:57.836Z,13.88
2023-04-13T11:08:28.281Z,13.76
2023-04-13T11:10:59.720Z,13.61
2023-04-13T11:13:31.175Z,13.46
2023-04-13T11:16:10.172Z,13.34
2023-04-13T11:18:39.082Z,13.24
2023-04-13T11:21:17.362Z,13.14
2023-04-13T11:23:55.569Z,13.04
2023-04-13T11:26:39.393Z,12.98
2023-04-13T11:29:19.239Z,12.95
2023-04-13T11:31:51.556Z,12.92
2023-04-13T11:34:29.211Z,12.89
2023-04-13T11:37:07.468Z,12.93
2023-04-13T11:39:36.494Z,12.98
2023-04-13T11:42:08.164Z,13.06
2023-04-13T11:44:37.947Z,13.14
2023-04-13T11:47:06.699Z,13.21
2023-04-13T11:49:48.248Z,13.32
2023-04-13T11:52:17.606Z,13.44
2023-04-13T11:54:45.989Z,13.53
2023-04-13T12:02:20.807Z,13.76
2023-04-13T16:37:21.749Z,11.89
2023-04-13T18:03:19.847Z,11.31
2023-04-13T18:05:49.113Z,11.29
2023-04-13T18:08:17.615Z,11.28
2023-04-13T18:10:46.334Z,11.26
2023-04-13T18:13:14.587Z,11.22
2023-04-13T18:15:48.556Z,11.18
2023-04-13T18:18:24.554Z,11.15
2023-04-13T18:20:58.049Z,11.12
2023-04-13T18:23:28.117Z,11.10
2023-04-13T18:25:56.914Z,11.08
2023-04-13T18:28:25.623Z,11.06
2023-04-13T18:30:59.400Z,11.04
2023-04-13T18:33:29.926Z,11.03
2023-04-13T18:35:58.538Z,11.00
2023-04-13T18:38:27.716Z,10.98
2023-04-13T18:40:56.539Z,10.95
2023-04-13T18:43:24.688Z,10.90
2023-04-13T18:45:53.352Z,10.87
2023-04-13T18:48:24.718Z,10.88
2023-04-13T18:50:56.833Z,10.89
2023-04-13T18:53:25.230Z,10.89
2023-04-13T18:55:54.089Z,10.89
2023-04-13T18:58:22.530Z,10.89
2023-04-13T19:00:50.837Z,10.90
2023-04-13T19:03:20.341Z,10.89
2023-04-13T19:05:49.465Z,10.89
2023-04-13T19:08:19.164Z,10.89
2023-04-13T19:10:48.190Z,10.88
2023-04-13T19:13:17.218Z,10.89
2023-04-13T19:15:51.867Z,10.89
2023-04-13T19:18:22.851Z,10.87
2023-04-13T19:20:51.505Z,10.86
2023-04-13T19:23:21.182Z,10.86
2023-04-13T19:25:50.108Z,10.87
2023-04-13T19:28:18.327Z,10.86
2023-04-13T19:30:46.685Z,10.87
2023-04-13T19:33:14.907Z,10.87
2023-04-13T19:35:43.342Z,10.84
2023-04-13T19:38:12.030Z,10.80
2023-04-13T19:40:41.235Z,10.78
2023-04-13T19:43:09.395Z,10.76
2023-04-13T19:45:39.647Z,10.74
2023-04-13T19:48:07.996Z,10.70
2023-04-13T19:50:36.782Z,10.68
2023-04-13T19:53:05.276Z,10.67
2023-04-13T19:55:34.150Z,10.68
2023-04-13T20:05:47.649Z,10.43
2023-04-13T20:08:16.616Z,10.33
2023-04-13T20:10:45.007Z,10.32
2023-04-13T20:13:15.710Z,10.32
2023-04-13T20:15:44.522Z,10.33
2023-04-13T20:18:13.296Z,10.33
2023-04-13T20:20:44.456Z,10.34
2023-04-13T20:23:12.629Z,10.36
2023-04-13T20:25:45.324Z,10.37
2023-04-13T20:28:14.503Z,10.39
2023-04-13T20:30:43.291Z,10.40
2023-04-13T20:33:17.712Z,10.41
2023-04-13T20:35:46.195Z,10.41
2023-04-13T20:38:14.606Z,10.42
2023-04-13T20:40:46.154Z,10.42
2023-04-13T20:43:20.645Z,10.44
2023-04-13T20:45:50.761Z,10.43
2023-04-13T20:50:50.510Z,10.35
2023-04-13T20:53:20.614Z,10.32
2023-04-13T20:55:49.053Z,10.32
2023-04-13T20:58:17.673Z,10.31
2023-04-13T21:00:49.186Z,10.28
2023-04-13T21:03:19.790Z,10.28
2023-04-13T21:05:48.340Z,10.29
2023-04-13T21:08:17.025Z,10.30
2023-04-13T21:10:50.028Z,10.29
2023-04-13T21:13:19.009Z,10.27
2023-04-13T21:15:47.391Z,10.25
2023-04-13T21:18:22.626Z,10.22
2023-04-13T21:20:52.858Z,10.20
2023-04-13T21:23:21.216Z,10.18
2023-04-13T21:25:50.418Z,10.18
2023-04-13T21:28:19.110Z,10.17
2023-04-13T21:30:47.596Z,10.16
2023-04-13T21:33:23.140Z,10.14
2023-04-13T21:35:51.891Z,10.13
2023-04-13T21:38:20.019Z,10.10
2023-04-13T21:40:48.354Z,10.08
2023-04-13T21:43:17.206Z,10.07
2023-04-13T21:45:47.003Z,10.07
2023-04-13T21:48:15.782Z,10.05
2023-04-13T21:50:44.452Z,10.05
2023-04-13T21:53:13.753Z,10.05
2023-04-13T21:55:42.358Z,10.04
2023-04-13T21:58:10.826Z,10.03
2023-04-13T22:00:39.382Z,10.02
2023-04-13T22:03:07.991Z,10.01
2023-04-13T22:05:36.751Z,9.97
2023-04-13T22:08:05.815Z,9.95
2023-04-13T22:10:34.049Z,9.94
2023-04-13T22:13:05.578Z,9.93
2023-04-13T22:15:40.867Z,9.88
2023-04-13T22:18:12.424Z,9.81
2023-04-13T22:20:40.847Z,9.72
2023-04-13T22:23:09.361Z,9.70
2023-04-13T22:25:38.334Z,9.64
2023-04-13T22:28:06.597Z,9.61
2023-04-13T22:30:39.594Z,9.63
2023-04-13T22:33:07.761Z,9.65
2023-04-13T22:35:36.641Z,9.66
2023-04-13T22:38:06.978Z,9.65
2023-04-13T22:40:39.173Z,9.66
2023-04-13T22:43:07.714Z,9.69
2023-04-13T22:45:37.120Z,9.72
2023-04-13T22:48:06.080Z,9.73
2023-04-13T22:50:37.508Z,9.74
2023-04-13T22:53:08.597Z,9.77
2023-04-13T22:55:37.282Z,9.80
2023-04-13T22:58:05.701Z,9.84
2023-04-13T23:00:35.475Z,9.88
2023-04-13T23:03:17.199Z,9.91
2023-04-13T23:05:47.044Z,9.93
2023-04-13T23:08:15.439Z,9.93
2023-04-13T23:10:43.744Z,9.94
2023-04-13T23:13:11.875Z,9.97
2023-04-13T23:15:42.844Z,10.00
2023-04-13T23:18:11.142Z,10.02
2023-04-13T23:20:40.443Z,10.04
2023-04-13T23:23:08.511Z,10.06
2023-04-13T23:25:37.827Z,10.06
2023-04-13T23:28:06.191Z,10.05
2023-04-13T23:30:34.942Z,10.07
2023-04-13T23:33:04.147Z,10.07
2023-04-13T23:35:32.343Z,10.01
2023-04-13T23:38:00.936Z,9.96
2023-04-13T23:40:29.344Z,9.93
2023-04-13T23:42:57.360Z,9.89
2023-04-13T23:45:30.812Z,9.88
2023-04-13T23:47:59.888Z,9.87
2023-04-13T23:50:27.961Z,9.88
2023-04-13T23:52:56.721Z,9.89
2023-04-13T23:55:24.680Z,9.91
